AirNav   TITAN Aviation Fuels
 
 545 users online  

4R9 Jeremiah Denton Airport
Dauphin Island, Alabama, USA

GOING TO DAUPHIN ISLAND?


FAA INFORMATION EFFECTIVE 19 MAY 2022

Location

FAA Identifier: 4R9
Lat/Long: 30-15-37.7340N 088-07-38.9030W
30-15.628900N 088-07.648383W
30.2604817,-88.1274731
(estimated)
Elevation: 4.6 ft. / 1.4 m (surveyed)
Variation: 02E (1985)
Time zone: UTC -5 (UTC -6 during Standard Time)
Zip code: 36528

Airport Operations

Airport use: Open to the public
Activation date: 02/1967
Control tower: no
ARTCC: HOUSTON CENTER
FSS: ANNISTON FLIGHT SERVICE STATION
NOTAMs facility: ANB (NOTAM-D service available)
Attendance: UNATNDD
Wind indicator: lighted
Segmented circle: yes
Lights: ACTVT PAPI RWY 12 & 30; MIRL RWY 12/30 - CTAF.
Beacon: white-green (lighted land airport)
Operates sunset to sunrise.

Airport Communications

CTAF/UNICOM: 122.8
WX AWOS-3PT at CQF (18 nm NE): 118.425 (251-928-3242)

Nearby radio navigation aids

VOR radial/distance  VOR name  Freq  Var
BFMr186/21.5BROOKLEY VORTAC116.3504E
SJIr152/30.4SEMMES VORTAC115.3005E

 
NDB name  Hdg/Dist  Freq  Var  ID
WISLE164/31.424801WMOB -- --- -...

Airport Services

Parking: tiedowns
Airframe service: NONE
Powerplant service: NONE
Bottled oxygen: NONE
Bulk oxygen: NONE

Runway Information

Runway 12/30

Dimensions: 3000 x 80 ft. / 914 x 24 m
Surface: asphalt, in fair condition
Weight bearing capacity: 
Single wheel: 30.0
Runway edge lights: medium intensity
RUNWAY 12  RUNWAY 30
Latitude: 30-15.764920N30-15.492868N
Longitude: 088-07.886713W088-07.410058W
Elevation: 4.4 ft.4.3 ft.
Traffic pattern: leftleft
Displaced threshold: 202 ft.140 ft.
Markings: basic, in fair conditionbasic, in fair condition
Visual slope indicator: 2-light PAPI on left (3.00 degrees glide path)2-light PAPI on right (3.50 degrees glide path)
Touchdown point: yes, no lightsyes, no lights
Obstructions: none
APCH SLOPE 50:1 TO DSPLCD THR.
57 ft. trees, 987 ft. from runway, 212 ft. left of centerline, 13:1 slope to clear
APCH SLOPE 19:1 TO DSPLCD THR.

Airport Ownership and Management from official FAA records

Ownership: Publicly-owned
Owner: MOBILE COUNTY
205 GOVERNMENT ST
MOBILE, AL 36644
Phone 251-574-8595
Manager: WILLIAM MEREDITH
7651 EDGAR ROBERTS RD
IRVINGTON, AL 37544
Phone 251-824-2831

Airport Operational Statistics

Aircraft operations: avg 70/week *
60% transient general aviation
40% local general aviation
* for 12-month period ending 31 May 2019

Additional Remarks

BIRDS ON & INVOF ARPT.
EXTSV BANNER TOW OPNS ARND IS CST LN & N TO MOBILE.
FOR CD CTC MOBILE APCH AT 251-662-6236, WHEN APCH CLSD CTC HOUSTON ARTCC AT 281-230-5622.

Instrument Procedures

There are no published instrument procedures at 4R9.

Some nearby airports with instrument procedures:

2R5 - St Elmo Airport (16 nm NW)
KCQF - H L Sonny Callahan Airport (18 nm NE)
KBFM - Mobile Downtown Airport (22 nm N)
KJKA - Gulf Shores International Airport/Jack Edwards Field (24 nm E)
KPQL - Trent Lott International Airport (24 nm NW)
 
Loc | Ops | Rwys | IFR | FBO | Links
Com | Nav | Svcs | Stats | Notes
Area around 4R9 (Jeremiah Denton Airport)
 
Road maps at: MapQuest Bing Google
 
Aerial photo
WARNING: Photo may not be current or correct
Aerial photo of 4R9 (Jeremiah Denton Airport)
Photo taken 28-Sep-2019

Do you have a better or more recent aerial photo of Jeremiah Denton Airport that you would like to share? If so, please send us your photo.

 
Sectional chart

 
Airport distance calculator
Flying to Jeremiah Denton Airport? Find the distance to fly.

From to 4R9

Sunrise and sunset
Times for 28-May-2022
 Local
(UTC-5)
 Zulu
(UTC)
Morning civil twilight05:2610:26
Sunrise05:5310:53
Sunset19:4600:46
Evening civil twilight20:1301:13

Current date and time
Zulu (UTC)  28-May-2022 10:49:30
Local (UTC-5)  28-May-2022 05:49:30
 
METAR
KBFM 
22nm N 
280953Z 33005KT 10SM CLR 18/16 A2994 RMK AO2 SLP138 T01780156
KJKA 
24nm E 
281035Z AUTO 02003KT 10SM CLR 18/17 A2992 RMK AO2
KPQL 
24nm NW 
280953Z AUTO 00000KT 10SM CLR 17/16 A2992 RMK AO2 SLP135 T01720161
KMOB 
26nm N 
280956Z AUTO 35003KT 10SM CLR 17/14 A2993 RMK AO2 SLP134 T01720144
TAF
KBFM 
22nm N 
280520Z 2806/2906 33003KT P6SM SKC FM281400 05005KT P6SM SKC FM281800 15007KT P6SM FEW040
KMOB 
26nm N 
280520Z 2806/2906 32003KT P6SM SKC FM281400 04005KT P6SM SKC FM281800 VRB03KT P6SM FEW040
NOTAMs
Click for the latest NOTAMs
NOTAMs are issued by the DoD/FAA and will open in a separate window not controlled by AirNav.

 

 
 

Would you like to see your business listed on this page?

 If your business provides an interesting product or service to pilots, flight crews, aircraft, or users of the Jeremiah Denton Airport, you should consider listing it here.  To start the listing process, click on the button below
 
Add a business
 

Other Pages about Jeremiah Denton Airport

gulfinfo.com/...
 
Update a link
 
Copyright © AirNav, LLC. All rights reserved. Privacy Policy  Contact